UAL241 KMIA-TBPB
Flight info
| Callsign | UAL241 |
|---|---|
| Flight time | N/A |
| Altitude | 37000 |
| Route | KLADA2 BITAC Y290 HAGIT Y421 MEEGL DCT ILURI UA555 BGI DCT |
| Aircraft | A21N/M-SDE2E3FGHIRWXY/LB1 |
Departure
| Time | 2026-04-30 21:12 |
|---|---|
| Airport | Miami International Airport (KMIA) |
Arrival
| Time | N/A |
|---|---|
| Airport | Grantley Adams International Airport (TBPB) |
| Time | Latitude | Longitude | Altitude | Speed | Heading |
|---|---|---|---|---|---|
| 2026-04-30 20:13 | 25.79828 | -80.28266 | 21 ft | 0 kts | 177° |
| 2026-04-30 20:50 | 25.79832 | -80.28266 | 21 ft | 3 kts | 177° |
| 2026-04-30 20:51 | 25.79851 | -80.28267 | 22 ft | 3 kts | 177° |
| 2026-04-30 20:51 | 25.79883 | -80.28253 | 21 ft | 3 kts | 224° |
| 2026-04-30 20:51 | 25.79891 | -80.28240 | 22 ft | 0 kts | 273° |
| 2026-04-30 21:01 | 25.79892 | -80.28263 | 29 ft | 4 kts | 273° |
| 2026-04-30 21:01 | 25.79913 | -80.28311 | 22 ft | 4 kts | 339° |
| 2026-04-30 21:02 | 25.79934 | -80.28323 | 22 ft | 2 kts | 325° |
| 2026-04-30 21:02 | 25.79938 | -80.28330 | 22 ft | 1 kts | 307° |
| 2026-04-30 21:02 | 25.79945 | -80.28340 | 25 ft | 3 kts | 302° |
| 2026-04-30 21:02 | 25.79951 | -80.28373 | 22 ft | 6 kts | 272° |
| 2026-04-30 21:03 | 25.79949 | -80.28429 | 27 ft | 9 kts | 268° |
| 2026-04-30 21:03 | 25.79947 | -80.28504 | 28 ft | 11 kts | 268° |
| 2026-04-30 21:03 | 25.79943 | -80.28590 | 26 ft | 12 kts | 267° |
| 2026-04-30 21:03 | 25.79938 | -80.28684 | 28 ft | 13 kts | 267° |
| 2026-04-30 21:04 | 25.79934 | -80.28791 | 29 ft | 15 kts | 267° |
| 2026-04-30 21:04 | 25.79928 | -80.28920 | 28 ft | 18 kts | 267° |
| 2026-04-30 21:04 | 25.79918 | -80.29189 | 28 ft | 22 kts | 268° |
| 2026-04-30 21:05 | 25.79915 | -80.29277 | 26 ft | 23 kts | 268° |
| 2026-04-30 21:05 | 25.79910 | -80.29409 | 27 ft | 15 kts | 267° |
| 2026-04-30 21:05 | 25.79905 | -80.29538 | 22 ft | 19 kts | 268° |
| 2026-04-30 21:05 | 25.79903 | -80.29579 | 21 ft | 2 kts | 268° |
| 2026-04-30 21:06 | 25.79902 | -80.29607 | 21 ft | 6 kts | 268° |
| 2026-04-30 21:06 | 25.79902 | -80.29609 | 21 ft | 1 kts | 268° |
| 2026-04-30 21:06 | 25.79901 | -80.29628 | 21 ft | 4 kts | 268° |
| 2026-04-30 21:06 | 25.79900 | -80.29676 | 20 ft | 8 kts | 268° |
| 2026-04-30 21:07 | 25.79911 | -80.29751 | 20 ft | 12 kts | 284° |
| 2026-04-30 21:07 | 25.79942 | -80.29846 | 19 ft | 15 kts | 290° |
| 2026-04-30 21:07 | 25.79963 | -80.29907 | 19 ft | 8 kts | 287° |
| 2026-04-30 21:07 | 25.79966 | -80.29919 | 18 ft | 0 kts | 285° |
| 2026-04-30 21:08 | 25.79968 | -80.29927 | 18 ft | 3 kts | 285° |
| 2026-04-30 21:08 | 25.79975 | -80.29954 | 18 ft | 0 kts | 285° |
| 2026-04-30 21:09 | 25.79977 | -80.29962 | 18 ft | 3 kts | 285° |
| 2026-04-30 21:09 | 25.79986 | -80.30000 | 18 ft | 7 kts | 285° |
| 2026-04-30 21:10 | 25.80003 | -80.30060 | 20 ft | 9 kts | 296° |
| 2026-04-30 21:10 | 25.80059 | -80.30070 | 20 ft | 11 kts | 38° |
| 2026-04-30 21:10 | 25.80078 | -80.29981 | 19 ft | 14 kts | 86° |
| 2026-04-30 21:10 | 25.80079 | -80.29965 | 19 ft | 0 kts | 87° |
| 2026-04-30 21:11 | 25.80080 | -80.29944 | 21 ft | 16 kts | 87° |
| 2026-04-30 21:11 | 25.80093 | -80.29599 | 21 ft | 74 kts | 87° |
| 2026-04-30 21:11 | 25.80121 | -80.28787 | 28 ft | 138 kts | 88° |
| 2026-04-30 21:11 | 25.80170 | -80.27513 | 32 ft | 188 kts | 88° |
| 2026-04-30 21:12 | 25.80223 | -80.26010 | 379 ft | 199 kts | 100° |
| 2026-04-30 21:12 | 25.79828 | -80.24482 | 685 ft | 221 kts | 112° |
| 2026-04-30 21:12 | 25.79188 | -80.22819 | 1107 ft | 246 kts | 117° |
| 2026-04-30 21:12 | 25.78439 | -80.21024 | 1664 ft | 267 kts | 116° |
| 2026-04-30 21:13 | 25.77561 | -80.19143 | 2379 ft | 277 kts | 121° |
| 2026-04-30 21:13 | 25.76596 | -80.17302 | 3367 ft | 277 kts | 122° |
| 2026-04-30 21:13 | 25.75611 | -80.15435 | 4160 ft | 285 kts | 121° |
| 2026-04-30 21:13 | 25.74621 | -80.13517 | 5044 ft | 286 kts | 120° |
| 2026-04-30 21:14 | 25.73654 | -80.11570 | 5872 ft | 290 kts | 116° |
| 2026-04-30 21:14 | 25.72864 | -80.09537 | 6496 ft | 293 kts | 111° |
| 2026-04-30 21:14 | 25.72146 | -80.07412 | 7053 ft | 295 kts | 110° |
| 2026-04-30 21:14 | 25.71438 | -80.05261 | 7600 ft | 298 kts | 110° |
| 2026-04-30 21:15 | 25.70725 | -80.03092 | 8183 ft | 300 kts | 110° |
| 2026-04-30 21:15 | 25.70009 | -80.00917 | 8745 ft | 304 kts | 110° |
| 2026-04-30 21:15 | 25.69272 | -79.98689 | 9292 ft | 307 kts | 110° |
| 2026-04-30 21:15 | 25.68531 | -79.96450 | 9830 ft | 311 kts | 110° |
| 2026-04-30 21:16 | 25.67783 | -79.94195 | 10353 ft | 312 kts | 110° |
| 2026-04-30 21:16 | 25.67031 | -79.91929 | 10878 ft | 314 kts | 110° |
| 2026-04-30 21:16 | 25.66272 | -79.89644 | 11404 ft | 317 kts | 110° |
| 2026-04-30 21:16 | 25.65506 | -79.87342 | 11944 ft | 320 kts | 110° |
| 2026-04-30 21:17 | 25.64733 | -79.85017 | 12498 ft | 323 kts | 110° |
| 2026-04-30 21:17 | 25.63952 | -79.82671 | 13061 ft | 326 kts | 110° |
| 2026-04-30 21:17 | 25.63164 | -79.80305 | 13615 ft | 329 kts | 110° |
| 2026-04-30 21:17 | 25.62366 | -79.77912 | 14093 ft | 333 kts | 110° |
| 2026-04-30 21:18 | 25.61561 | -79.75498 | 14553 ft | 336 kts | 110° |
| 2026-04-30 21:18 | 25.60748 | -79.73063 | 15048 ft | 338 kts | 110° |
| 2026-04-30 21:18 | 25.59930 | -79.70620 | 15555 ft | 340 kts | 111° |
| 2026-04-30 21:18 | 25.59062 | -79.68172 | 16044 ft | 342 kts | 112° |
| 2026-04-30 21:19 | 25.58171 | -79.65724 | 16531 ft | 344 kts | 112° |
| 2026-04-30 21:19 | 25.57272 | -79.63265 | 17057 ft | 345 kts | 112° |
| 2026-04-30 21:19 | 25.56370 | -79.60800 | 17556 ft | 346 kts | 112° |
| 2026-04-30 21:19 | 25.55474 | -79.58349 | 18014 ft | 349 kts | 112° |
| 2026-04-30 21:20 | 25.54560 | -79.55852 | 18448 ft | 351 kts | 112° |
| 2026-04-30 21:20 | 25.53639 | -79.53334 | 18820 ft | 354 kts | 112° |
| 2026-04-30 21:20 | 25.52708 | -79.50793 | 19188 ft | 357 kts | 112° |
| 2026-04-30 21:20 | 25.51770 | -79.48231 | 19560 ft | 360 kts | 112° |
| 2026-04-30 21:21 | 25.50824 | -79.45650 | 19929 ft | 363 kts | 111° |
| 2026-04-30 21:21 | 25.49871 | -79.43053 | 20292 ft | 366 kts | 111° |
| 2026-04-30 21:21 | 25.47941 | -79.37796 | 21031 ft | 371 kts | 112° |
| 2026-04-30 21:22 | 25.46966 | -79.35142 | 21382 ft | 373 kts | 112° |
| 2026-04-30 21:22 | 25.44000 | -79.27083 | 22388 ft | 380 kts | 111° |
| 2026-04-30 21:23 | 25.42999 | -79.24365 | 22712 ft | 383 kts | 111° |
| 2026-04-30 21:23 | 25.41989 | -79.21627 | 22960 ft | 387 kts | 111° |
| 2026-04-30 21:23 | 25.39915 | -79.16006 | 23244 ft | 402 kts | 111° |
| 2026-04-30 21:24 | 25.38849 | -79.13120 | 23383 ft | 409 kts | 111° |
| 2026-04-30 21:24 | 25.37762 | -79.10182 | 23521 ft | 416 kts | 111° |
| 2026-04-30 21:24 | 25.36660 | -79.07202 | 23631 ft | 422 kts | 111° |
| 2026-04-30 21:24 | 25.35536 | -79.04167 | 23744 ft | 429 kts | 112° |
| 2026-04-30 21:25 | 25.33242 | -78.97979 | 23974 ft | 441 kts | 112° |
| 2026-04-30 21:25 | 25.32072 | -78.94827 | 24077 ft | 446 kts | 112° |
| 2026-04-30 21:25 | 25.30885 | -78.91631 | 24175 ft | 452 kts | 112° |
| 2026-04-30 21:26 | 25.28469 | -78.85135 | 24398 ft | 461 kts | 112° |
| 2026-04-30 21:26 | 25.27245 | -78.81848 | 24579 ft | 464 kts | 112° |
| 2026-04-30 21:27 | 25.24798 | -78.75282 | 24989 ft | 467 kts | 112° |
| 2026-04-30 21:27 | 25.23559 | -78.71963 | 25203 ft | 468 kts | 112° |
| 2026-04-30 21:27 | 25.22316 | -78.68634 | 25420 ft | 469 kts | 112° |
| 2026-04-30 21:28 | 25.19824 | -78.61971 | 25875 ft | 470 kts | 112° |
| 2026-04-30 21:28 | 25.18574 | -78.58631 | 26092 ft | 471 kts | 112° |
| 2026-04-30 21:28 | 25.15919 | -78.52009 | 26475 ft | 473 kts | 114° |
| 2026-04-30 21:29 | 25.14556 | -78.48693 | 26658 ft | 475 kts | 114° |
| 2026-04-30 21:29 | 25.10448 | -78.38699 | 27189 ft | 479 kts | 114° |
| 2026-04-30 21:30 | 25.07691 | -78.31995 | 27524 ft | 481 kts | 114° |
| 2026-04-30 21:31 | 25.03527 | -78.21883 | 28002 ft | 484 kts | 114° |
| 2026-04-30 21:31 | 25.00731 | -78.15108 | 28321 ft | 486 kts | 114° |
| 2026-04-30 21:32 | 24.97922 | -78.08309 | 28620 ft | 489 kts | 114° |
| 2026-04-30 21:32 | 24.96510 | -78.04896 | 28770 ft | 490 kts | 113° |
| 2026-04-30 21:32 | 24.95096 | -78.01481 | 28917 ft | 491 kts | 113° |
| 2026-04-30 21:32 | 24.93678 | -77.98059 | 29058 ft | 492 kts | 113° |
| 2026-04-30 21:33 | 24.92254 | -77.94627 | 29192 ft | 493 kts | 113° |
| 2026-04-30 21:33 | 24.89392 | -77.87732 | 29407 ft | 496 kts | 113° |
| 2026-04-30 21:33 | 24.87956 | -77.84278 | 29548 ft | 497 kts | 113° |
| 2026-04-30 21:34 | 24.86514 | -77.80811 | 29670 ft | 498 kts | 113° |
| 2026-04-30 21:34 | 24.83642 | -77.73916 | 29918 ft | 500 kts | 113° |
| 2026-04-30 21:34 | 24.82661 | -77.71564 | 30003 ft | 500 kts | 113° |
| 2026-04-30 21:35 | 24.80735 | -77.66946 | 30202 ft | 500 kts | 113° |
| 2026-04-30 21:35 | 24.79289 | -77.63484 | 30426 ft | 498 kts | 113° |
| 2026-04-30 21:35 | 24.76414 | -77.56533 | 30582 ft | 501 kts | 110° |
| 2026-04-30 21:36 | 24.75349 | -77.52887 | 30601 ft | 500 kts | 99° |
| 2026-04-30 21:36 | 24.74953 | -77.50396 | 30668 ft | 499 kts | 96° |
| 2026-04-30 21:37 | 24.73885 | -77.39019 | 31042 ft | 498 kts | 92° |
| 2026-04-30 21:37 | 24.73602 | -77.35232 | 31183 ft | 498 kts | 92° |
| 2026-04-30 21:37 | 24.73311 | -77.31429 | 31329 ft | 497 kts | 92° |
| 2026-04-30 21:37 | 24.73009 | -77.27636 | 31476 ft | 497 kts | 92° |
| 2026-04-30 21:38 | 24.72697 | -77.23854 | 31624 ft | 496 kts | 93° |
| 2026-04-30 21:38 | 24.72376 | -77.20075 | 31741 ft | 497 kts | 92° |
| 2026-04-30 21:38 | 24.71722 | -77.12502 | 31966 ft | 497 kts | 92° |
| 2026-04-30 21:39 | 24.71391 | -77.08718 | 32131 ft | 496 kts | 92° |
| 2026-04-30 21:39 | 24.71061 | -77.04943 | 32260 ft | 496 kts | 92° |
| 2026-04-30 21:39 | 24.70731 | -77.01172 | 32399 ft | 495 kts | 92° |
| 2026-04-30 21:39 | 24.70400 | -76.97404 | 32537 ft | 495 kts | 92° |
| 2026-04-30 21:40 | 24.70149 | -76.94543 | 32639 ft | 494 kts | 92° |